sensor_id;sensor_type;location;lat;lon;timestamp;P1;durP1;ratioP1;P2;durP2;ratioP2
60714;SDS011;46564;53.096;8.246;2023-03-22T00:01:50;6.05;;;3.10;;
60714;SDS011;46564;53.096;8.246;2023-03-22T00:06:53;8.23;;;4.03;;
60714;SDS011;46564;53.096;8.246;2023-03-22T00:11:55;8.38;;;3.75;;
60714;SDS011;46564;53.096;8.246;2023-03-22T00:16:57;8.80;;;4.28;;
60714;SDS011;46564;53.096;8.246;2023-03-22T00:21:58;7.05;;;4.15;;
60714;SDS011;46564;53.096;8.246;2023-03-22T00:27:01;9.13;;;4.22;;
60714;SDS011;46564;53.096;8.246;2023-03-22T00:32:03;8.82;;;4.82;;
60714;SDS011;46564;53.096;8.246;2023-03-22T00:37:05;15.32;;;4.50;;
60714;SDS011;46564;53.096;8.246;2023-03-22T00:42:08;10.18;;;4.38;;
60714;SDS011;46564;53.096;8.246;2023-03-22T00:47:09;11.57;;;5.38;;
60714;SDS011;46564;53.096;8.246;2023-03-22T00:52:12;13.32;;;5.18;;
60714;SDS011;46564;53.096;8.246;2023-03-22T00:57:14;10.63;;;5.63;;
60714;SDS011;46564;53.096;8.246;2023-03-22T01:02:15;13.43;;;5.28;;
60714;SDS011;46564;53.096;8.246;2023-03-22T01:07:17;9.50;;;4.45;;
60714;SDS011;46564;53.096;8.246;2023-03-22T01:12:21;9.45;;;4.93;;
60714;SDS011;46564;53.096;8.246;2023-03-22T01:17:23;9.77;;;4.65;;
60714;SDS011;46564;53.096;8.246;2023-03-22T01:22:24;10.35;;;4.68;;
60714;SDS011;46564;53.096;8.246;2023-03-22T01:27:27;9.35;;;4.57;;
60714;SDS011;46564;53.096;8.246;2023-03-22T01:32:29;10.80;;;4.40;;
60714;SDS011;46564;53.096;8.246;2023-03-22T01:37:30;10.65;;;5.18;;
60714;SDS011;46564;53.096;8.246;2023-03-22T01:42:33;9.07;;;3.55;;
60714;SDS011;46564;53.096;8.246;2023-03-22T01:47:40;9.98;;;4.03;;
60714;SDS011;46564;53.096;8.246;2023-03-22T01:52:49;8.98;;;3.78;;
60714;SDS011;46564;53.096;8.246;2023-03-22T01:58:05;8.30;;;4.00;;
60714;SDS011;46564;53.096;8.246;2023-03-22T02:03:18;6.93;;;3.03;;
60714;SDS011;46564;53.096;8.246;2023-03-22T02:08:29;8.05;;;3.90;;
60714;SDS011;46564;53.096;8.246;2023-03-22T02:30:38;9.30;;;3.58;;
60714;SDS011;46564;53.096;8.246;2023-03-22T02:41:54;5.82;;;2.70;;
60714;SDS011;46564;53.096;8.246;2023-03-22T02:47:15;7.35;;;2.97;;
60714;SDS011;46564;53.096;8.246;2023-03-22T02:52:31;7.32;;;2.17;;
60714;SDS011;46564;53.096;8.246;2023-03-22T02:57:43;6.70;;;2.83;;
60714;SDS011;46564;53.096;8.246;2023-03-22T03:02:51;4.40;;;1.83;;
60714;SDS011;46564;53.096;8.246;2023-03-22T03:07:58;5.90;;;1.90;;
60714;SDS011;46564;53.096;8.246;2023-03-22T03:13:04;3.80;;;1.73;;
60714;SDS011;46564;53.096;8.246;2023-03-22T03:28:41;4.35;;;1.85;;
60714;SDS011;46564;53.096;8.246;2023-03-22T03:34:18;6.70;;;2.75;;
60714;SDS011;46564;53.096;8.246;2023-03-22T03:39:22;3.58;;;1.67;;
60714;SDS011;46564;53.096;8.246;2023-03-22T03:44:27;5.50;;;2.20;;
60714;SDS011;46564;53.096;8.246;2023-03-22T03:49:31;5.65;;;2.10;;
60714;SDS011;46564;53.096;8.246;2023-03-22T03:54:33;5.43;;;1.73;;
60714;SDS011;46564;53.096;8.246;2023-03-22T03:59:37;4.55;;;1.55;;
60714;SDS011;46564;53.096;8.246;2023-03-22T04:04:47;2.72;;;1.40;;
60714;SDS011;46564;53.096;8.246;2023-03-22T04:09:49;4.32;;;1.75;;
60714;SDS011;46564;53.096;8.246;2023-03-22T04:14:59;3.92;;;1.98;;
60714;SDS011;46564;53.096;8.246;2023-03-22T04:20:03;2.88;;;1.55;;
60714;SDS011;46564;53.096;8.246;2023-03-22T04:25:09;2.88;;;1.33;;
60714;SDS011;46564;53.096;8.246;2023-03-22T04:30:20;5.45;;;1.70;;
60714;SDS011;46564;53.096;8.246;2023-03-22T04:35:41;8.30;;;2.13;;
60714;SDS011;46564;53.096;8.246;2023-03-22T04:40:45;3.20;;;1.70;;
60714;SDS011;46564;53.096;8.246;2023-03-22T04:45:53;3.53;;;1.67;;
60714;SDS011;46564;53.096;8.246;2023-03-22T04:51:04;4.63;;;2.03;;
60714;SDS011;46564;53.096;8.246;2023-03-22T04:56:13;5.18;;;2.15;;
60714;SDS011;46564;53.096;8.246;2023-03-22T05:01:16;6.15;;;2.65;;
60714;SDS011;46564;53.096;8.246;2023-03-22T05:06:21;3.53;;;1.77;;
60714;SDS011;46564;53.096;8.246;2023-03-22T05:11:34;6.20;;;2.58;;
60714;SDS011;46564;53.096;8.246;2023-03-22T05:16:54;5.00;;;2.47;;
60714;SDS011;46564;53.096;8.246;2023-03-22T05:21:55;5.75;;;2.72;;
60714;SDS011;46564;53.096;8.246;2023-03-22T05:27:07;4.47;;;1.95;;
60714;SDS011;46564;53.096;8.246;2023-03-22T05:32:11;6.07;;;2.28;;
60714;SDS011;46564;53.096;8.246;2023-03-22T05:37:13;5.43;;;2.40;;
60714;SDS011;46564;53.096;8.246;2023-03-22T05:42:23;5.18;;;2.60;;
60714;SDS011;46564;53.096;8.246;2023-03-22T05:47:25;6.43;;;3.40;;
60714;SDS011;46564;53.096;8.246;2023-03-22T05:52:32;7.57;;;3.53;;
60714;SDS011;46564;53.096;8.246;2023-03-22T05:58:03;5.53;;;2.88;;
60714;SDS011;46564;53.096;8.246;2023-03-22T06:03:08;7.32;;;3.35;;
60714;SDS011;46564;53.096;8.246;2023-03-22T06:08:15;10.15;;;3.38;;
60714;SDS011;46564;53.096;8.246;2023-03-22T06:13:18;6.05;;;2.55;;
60714;SDS011;46564;53.096;8.246;2023-03-22T06:18:21;6.82;;;3.42;;
60714;SDS011;46564;53.096;8.246;2023-03-22T06:23:30;9.00;;;3.08;;
60714;SDS011;46564;53.096;8.246;2023-03-22T06:28:32;6.85;;;3.30;;
60714;SDS011;46564;53.096;8.246;2023-03-22T06:33:35;8.63;;;3.42;;
60714;SDS011;46564;53.096;8.246;2023-03-22T06:38:48;4.72;;;2.55;;
60714;SDS011;46564;53.096;8.246;2023-03-22T06:43:50;9.05;;;3.35;;
60714;SDS011;46564;53.096;8.246;2023-03-22T06:49:11;8.00;;;3.53;;
60714;SDS011;46564;53.096;8.246;2023-03-22T06:54:14;7.30;;;3.15;;
60714;SDS011;46564;53.096;8.246;2023-03-22T06:59:17;8.77;;;3.33;;
60714;SDS011;46564;53.096;8.246;2023-03-22T07:04:18;9.00;;;3.55;;
60714;SDS011;46564;53.096;8.246;2023-03-22T07:09:22;5.25;;;2.47;;
60714;SDS011;46564;53.096;8.246;2023-03-22T07:14:27;5.22;;;1.90;;
60714;SDS011;46564;53.096;8.246;2023-03-22T07:19:40;6.03;;;2.85;;
60714;SDS011;46564;53.096;8.246;2023-03-22T07:24:44;5.22;;;2.30;;
60714;SDS011;46564;53.096;8.246;2023-03-22T07:29:59;7.22;;;2.97;;
60714;SDS011;46564;53.096;8.246;2023-03-22T07:35:01;6.43;;;3.03;;
60714;SDS011;46564;53.096;8.246;2023-03-22T07:40:03;2.90;;;1.77;;
60714;SDS011;46564;53.096;8.246;2023-03-22T07:45:06;4.80;;;2.45;;
60714;SDS011;46564;53.096;8.246;2023-03-22T07:50:17;6.13;;;2.65;;
60714;SDS011;46564;53.096;8.246;2023-03-22T07:55:23;5.53;;;2.58;;
60714;SDS011;46564;53.096;8.246;2023-03-22T08:00:26;8.63;;;2.30;;
60714;SDS011;46564;53.096;8.246;2023-03-22T08:05:53;8.40;;;3.00;;
60714;SDS011;46564;53.096;8.246;2023-03-22T08:10:55;5.13;;;2.45;;
60714;SDS011;46564;53.096;8.246;2023-03-22T08:15:57;5.97;;;2.47;;
60714;SDS011;46564;53.096;8.246;2023-03-22T08:20:59;3.65;;;2.10;;
60714;SDS011;46564;53.096;8.246;2023-03-22T08:26:03;4.22;;;1.83;;
60714;SDS011;46564;53.096;8.246;2023-03-22T08:31:10;7.32;;;2.95;;
60714;SDS011;46564;53.096;8.246;2023-03-22T08:36:18;3.38;;;1.83;;
60714;SDS011;46564;53.096;8.246;2023-03-22T08:41:30;6.43;;;1.70;;
60714;SDS011;46564;53.096;8.246;2023-03-22T08:46:32;4.25;;;1.83;;
60714;SDS011;46564;53.096;8.246;2023-03-22T08:51:35;6.30;;;1.73;;
60714;SDS011;46564;53.096;8.246;2023-03-22T08:56:46;3.17;;;1.77;;
60714;SDS011;46564;53.096;8.246;2023-03-22T09:02:03;3.65;;;1.85;;
60714;SDS011;46564;53.096;8.246;2023-03-22T09:07:05;6.80;;;1.58;;
60714;SDS011;46564;53.096;8.246;2023-03-22T09:12:07;3.00;;;1.73;;
60714;SDS011;46564;53.096;8.246;2023-03-22T09:17:09;1.80;;;1.30;;
60714;SDS011;46564;53.096;8.246;2023-03-22T09:22:11;2.13;;;1.15;;
60714;SDS011;46564;53.096;8.246;2023-03-22T09:27:19;5.00;;;2.05;;
60714;SDS011;46564;53.096;8.246;2023-03-22T09:32:23;4.97;;;2.47;;
60714;SDS011;46564;53.096;8.246;2023-03-22T09:37:31;4.78;;;1.25;;
60714;SDS011;46564;53.096;8.246;2023-03-22T09:42:44;2.03;;;0.90;;
60714;SDS011;46564;53.096;8.246;2023-03-22T09:47:50;2.95;;;1.10;;
60714;SDS011;46564;53.096;8.246;2023-03-22T09:52:55;0.73;;;0.45;;
60714;SDS011;46564;53.096;8.246;2023-03-22T09:58:00;2.17;;;1.00;;
60714;SDS011;46564;53.096;8.246;2023-03-22T10:03:17;2.15;;;0.60;;
60714;SDS011;46564;53.096;8.246;2023-03-22T10:18:35;1.90;;;0.80;;
60714;SDS011;46564;53.096;8.246;2023-03-22T10:23:41;3.70;;;0.90;;
60714;SDS011;46564;53.096;8.246;2023-03-22T10:29:00;0.40;;;0.40;;
60714;SDS011;46564;53.096;8.246;2023-03-22T10:34:05;1.10;;;0.57;;
60714;SDS011;46564;53.096;8.246;2023-03-22T10:39:12;4.05;;;0.65;;
60714;SDS011;46564;53.096;8.246;2023-03-22T10:44:17;1.30;;;0.85;;
60714;SDS011;46564;53.096;8.246;2023-03-22T10:49:28;4.75;;;1.30;;
60714;SDS011;46564;53.096;8.246;2023-03-22T10:54:33;1.35;;;0.65;;
60714;SDS011;46564;53.096;8.246;2023-03-22T10:59:50;0.70;;;0.40;;
60714;SDS011;46564;53.096;8.246;2023-03-22T11:04:53;2.38;;;0.60;;
60714;SDS011;46564;53.096;8.246;2023-03-22T11:09:58;5.60;;;0.93;;
60714;SDS011;46564;53.096;8.246;2023-03-22T11:15:18;1.92;;;0.90;;
60714;SDS011;46564;53.096;8.246;2023-03-22T11:20:26;3.03;;;0.93;;
60714;SDS011;46564;53.096;8.246;2023-03-22T11:25:33;1.25;;;0.60;;
60714;SDS011;46564;53.096;8.246;2023-03-22T11:30:36;1.42;;;1.00;;
60714;SDS011;46564;53.096;8.246;2023-03-22T11:35:38;1.00;;;0.68;;
60714;SDS011;46564;53.096;8.246;2023-03-22T11:40:40;8.77;;;0.82;;
60714;SDS011;46564;53.096;8.246;2023-03-22T11:45:53;4.68;;;1.00;;
60714;SDS011;46564;53.096;8.246;2023-03-22T11:51:10;2.17;;;0.80;;
60714;SDS011;46564;53.096;8.246;2023-03-22T11:56:17;6.05;;;1.13;;
60714;SDS011;46564;53.096;8.246;2023-03-22T12:01:31;0.60;;;0.52;;
60714;SDS011;46564;53.096;8.246;2023-03-22T12:06:39;2.35;;;1.77;;
60714;SDS011;46564;53.096;8.246;2023-03-22T12:11:45;6.32;;;1.10;;
60714;SDS011;46564;53.096;8.246;2023-03-22T12:21:51;3.45;;;1.08;;
60714;SDS011;46564;53.096;8.246;2023-03-22T12:26:54;1.02;;;0.70;;
60714;SDS011;46564;53.096;8.246;2023-03-22T12:32:01;1.25;;;0.70;;
60714;SDS011;46564;53.096;8.246;2023-03-22T12:37:07;2.63;;;0.82;;
60714;SDS011;46564;53.096;8.246;2023-03-22T12:42:26;1.85;;;0.50;;
60714;SDS011;46564;53.096;8.246;2023-03-22T12:48:03;1.35;;;0.80;;
60714;SDS011;46564;53.096;8.246;2023-03-22T12:53:13;2.03;;;0.80;;
60714;SDS011;46564;53.096;8.246;2023-03-22T12:58:19;3.47;;;1.23;;
60714;SDS011;46564;53.096;8.246;2023-03-22T13:03:56;1.08;;;0.77;;
60714;SDS011;46564;53.096;8.246;2023-03-22T13:14:52;1.58;;;0.75;;
60714;SDS011;46564;53.096;8.246;2023-03-22T13:20:00;1.40;;;0.85;;
60714;SDS011;46564;53.096;8.246;2023-03-22T13:25:34;3.30;;;0.82;;
60714;SDS011;46564;53.096;8.246;2023-03-22T13:30:48;0.82;;;0.77;;
60714;SDS011;46564;53.096;8.246;2023-03-22T13:41:26;7.35;;;1.02;;
60714;SDS011;46564;53.096;8.246;2023-03-22T13:51:37;1.83;;;0.98;;
60714;SDS011;46564;53.096;8.246;2023-03-22T14:06:59;1.00;;;0.77;;
60714;SDS011;46564;53.096;8.246;2023-03-22T14:12:18;0.98;;;0.93;;
60714;SDS011;46564;53.096;8.246;2023-03-22T14:17:43;1.80;;;0.80;;
60714;SDS011;46564;53.096;8.246;2023-03-22T14:22:55;1.08;;;0.73;;
60714;SDS011;46564;53.096;8.246;2023-03-22T14:27:59;3.90;;;1.27;;
60714;SDS011;46564;53.096;8.246;2023-03-22T14:33:00;3.15;;;1.17;;
60714;SDS011;46564;53.096;8.246;2023-03-22T14:38:08;10.60;;;1.83;;
60714;SDS011;46564;53.096;8.246;2023-03-22T14:43:22;1.50;;;0.50;;
60714;SDS011;46564;53.096;8.246;2023-03-22T14:48:23;0.85;;;0.60;;
60714;SDS011;46564;53.096;8.246;2023-03-22T14:53:30;0.70;;;0.70;;
60714;SDS011;46564;53.096;8.246;2023-03-22T14:58:34;1.83;;;0.53;;
60714;SDS011;46564;53.096;8.246;2023-03-22T15:03:37;2.33;;;0.88;;
60714;SDS011;46564;53.096;8.246;2023-03-22T15:08:38;1.50;;;0.82;;
60714;SDS011;46564;53.096;8.246;2023-03-22T15:13:44;1.27;;;0.80;;
60714;SDS011;46564;53.096;8.246;2023-03-22T15:18:50;1.70;;;0.85;;
60714;SDS011;46564;53.096;8.246;2023-03-22T15:23:52;3.50;;;0.60;;
60714;SDS011;46564;53.096;8.246;2023-03-22T15:28:58;1.40;;;0.80;;
60714;SDS011;46564;53.096;8.246;2023-03-22T15:34:04;0.50;;;0.50;;
60714;SDS011;46564;53.096;8.246;2023-03-22T15:39:17;3.22;;;1.23;;
60714;SDS011;46564;53.096;8.246;2023-03-22T15:44:29;5.50;;;1.45;;
60714;SDS011;46564;53.096;8.246;2023-03-22T15:54:56;2.08;;;1.08;;
60714;SDS011;46564;53.096;8.246;2023-03-22T16:00:20;0.55;;;0.50;;
60714;SDS011;46564;53.096;8.246;2023-03-22T16:05:31;1.42;;;1.05;;
60714;SDS011;46564;53.096;8.246;2023-03-22T16:10:35;5.10;;;1.05;;
60714;SDS011;46564;53.096;8.246;2023-03-22T16:15:38;0.60;;;0.60;;
60714;SDS011;46564;53.096;8.246;2023-03-22T16:20:39;0.75;;;0.57;;
60714;SDS011;46564;53.096;8.246;2023-03-22T16:25:40;2.65;;;0.82;;
60714;SDS011;46564;53.096;8.246;2023-03-22T16:30:41;0.95;;;0.65;;
60714;SDS011;46564;53.096;8.246;2023-03-22T16:35:43;0.50;;;0.50;;
60714;SDS011;46564;53.096;8.246;2023-03-22T16:40:50;1.02;;;0.82;;
60714;SDS011;46564;53.096;8.246;2023-03-22T16:45:51;0.52;;;0.50;;
60714;SDS011;46564;53.096;8.246;2023-03-22T16:50:52;0.30;;;0.30;;
60714;SDS011;46564;53.096;8.246;2023-03-22T16:55:54;1.58;;;1.00;;
60714;SDS011;46564;53.096;8.246;2023-03-22T17:00:54;2.85;;;0.70;;
60714;SDS011;46564;53.096;8.246;2023-03-22T17:05:55;1.45;;;0.80;;
60714;SDS011;46564;53.096;8.246;2023-03-22T17:10:57;1.60;;;0.98;;
60714;SDS011;46564;53.096;8.246;2023-03-22T17:15:58;1.52;;;1.00;;
60714;SDS011;46564;53.096;8.246;2023-03-22T17:20:58;1.20;;;0.57;;
60714;SDS011;46564;53.096;8.246;2023-03-22T17:25:59;1.75;;;0.88;;
60714;SDS011;46564;53.096;8.246;2023-03-22T17:31:00;1.08;;;0.65;;
60714;SDS011;46564;53.096;8.246;2023-03-22T17:36:01;2.55;;;1.30;;
60714;SDS011;46564;53.096;8.246;2023-03-22T17:41:02;1.00;;;0.90;;
60714;SDS011;46564;53.096;8.246;2023-03-22T17:46:02;1.08;;;0.80;;
60714;SDS011;46564;53.096;8.246;2023-03-22T17:51:03;1.75;;;0.60;;
60714;SDS011;46564;53.096;8.246;2023-03-22T17:56:04;0.40;;;0.40;;
60714;SDS011;46564;53.096;8.246;2023-03-22T18:01:05;2.00;;;1.23;;
60714;SDS011;46564;53.096;8.246;2023-03-22T18:06:06;2.58;;;0.80;;
60714;SDS011;46564;53.096;8.246;2023-03-22T18:11:07;3.33;;;2.13;;
60714;SDS011;46564;53.096;8.246;2023-03-22T18:16:07;1.10;;;0.70;;
60714;SDS011;46564;53.096;8.246;2023-03-22T18:21:10;0.43;;;0.43;;
60714;SDS011;46564;53.096;8.246;2023-03-22T18:26:11;4.05;;;1.20;;
60714;SDS011;46564;53.096;8.246;2023-03-22T18:31:12;1.90;;;1.00;;
60714;SDS011;46564;53.096;8.246;2023-03-22T18:36:13;2.15;;;0.75;;
60714;SDS011;46564;53.096;8.246;2023-03-22T18:41:14;1.92;;;1.08;;
60714;SDS011;46564;53.096;8.246;2023-03-22T18:46:15;1.30;;;0.80;;
60714;SDS011;46564;53.096;8.246;2023-03-22T18:51:16;0.63;;;0.63;;
60714;SDS011;46564;53.096;8.246;2023-03-22T18:56:19;5.32;;;1.42;;
60714;SDS011;46564;53.096;8.246;2023-03-22T19:01:19;1.30;;;0.80;;
60714;SDS011;46564;53.096;8.246;2023-03-22T19:06:20;2.13;;;1.23;;
60714;SDS011;46564;53.096;8.246;2023-03-22T19:11:20;6.35;;;1.38;;
60714;SDS011;46564;53.096;8.246;2023-03-22T19:16:21;1.63;;;1.00;;
60714;SDS011;46564;53.096;8.246;2023-03-22T19:21:22;3.08;;;1.20;;
60714;SDS011;46564;53.096;8.246;2023-03-22T19:26:24;2.35;;;1.13;;
60714;SDS011;46564;53.096;8.246;2023-03-22T19:31:25;2.33;;;1.20;;
60714;SDS011;46564;53.096;8.246;2023-03-22T19:36:30;3.20;;;1.10;;
60714;SDS011;46564;53.096;8.246;2023-03-22T19:41:31;1.73;;;1.17;;
60714;SDS011;46564;53.096;8.246;2023-03-22T19:46:31;3.95;;;1.77;;
60714;SDS011;46564;53.096;8.246;2023-03-22T19:51:32;1.92;;;1.20;;
60714;SDS011;46564;53.096;8.246;2023-03-22T19:56:33;3.55;;;1.65;;
60714;SDS011;46564;53.096;8.246;2023-03-22T20:01:34;3.85;;;2.67;;
60714;SDS011;46564;53.096;8.246;2023-03-22T20:06:36;5.25;;;2.00;;
60714;SDS011;46564;53.096;8.246;2023-03-22T20:11:36;3.45;;;1.90;;
60714;SDS011;46564;53.096;8.246;2023-03-22T20:16:37;4.45;;;2.22;;
60714;SDS011;46564;53.096;8.246;2023-03-22T20:21:38;3.08;;;1.73;;
60714;SDS011;46564;53.096;8.246;2023-03-22T20:26:40;4.60;;;2.35;;
60714;SDS011;46564;53.096;8.246;2023-03-22T20:31:41;5.40;;;2.65;;
60714;SDS011;46564;53.096;8.246;2023-03-22T20:36:41;3.13;;;1.67;;
60714;SDS011;46564;53.096;8.246;2023-03-22T20:41:42;3.00;;;1.58;;
60714;SDS011;46564;53.096;8.246;2023-03-22T20:46:42;3.38;;;1.95;;
60714;SDS011;46564;53.096;8.246;2023-03-22T20:51:46;4.93;;;2.00;;
60714;SDS011;46564;53.096;8.246;2023-03-22T20:56:47;3.55;;;1.70;;
60714;SDS011;46564;53.096;8.246;2023-03-22T21:01:47;4.88;;;1.88;;
60714;SDS011;46564;53.096;8.246;2023-03-22T21:06:49;2.47;;;1.48;;
60714;SDS011;46564;53.096;8.246;2023-03-22T21:11:49;5.80;;;3.20;;
60714;SDS011;46564;53.096;8.246;2023-03-22T21:16:50;4.38;;;2.75;;
60714;SDS011;46564;53.096;8.246;2023-03-22T21:21:51;6.75;;;2.65;;
60714;SDS011;46564;53.096;8.246;2023-03-22T21:26:52;5.65;;;3.03;;
60714;SDS011;46564;53.096;8.246;2023-03-22T21:31:52;5.85;;;2.85;;
60714;SDS011;46564;53.096;8.246;2023-03-22T21:36:55;9.43;;;3.83;;
60714;SDS011;46564;53.096;8.246;2023-03-22T21:41:57;8.07;;;3.53;;
60714;SDS011;46564;53.096;8.246;2023-03-22T21:47:01;6.80;;;3.47;;
60714;SDS011;46564;53.096;8.246;2023-03-22T21:52:04;7.78;;;3.13;;
60714;SDS011;46564;53.096;8.246;2023-03-22T21:57:05;6.78;;;3.33;;
60714;SDS011;46564;53.096;8.246;2023-03-22T22:02:07;8.23;;;3.45;;
60714;SDS011;46564;53.096;8.246;2023-03-22T22:07:09;7.75;;;3.67;;
60714;SDS011;46564;53.096;8.246;2023-03-22T22:12:14;7.05;;;3.17;;
60714;SDS011;46564;53.096;8.246;2023-03-22T22:17:15;6.68;;;3.20;;
60714;SDS011;46564;53.096;8.246;2023-03-22T22:22:16;5.57;;;2.88;;
60714;SDS011;46564;53.096;8.246;2023-03-22T22:27:16;10.32;;;3.17;;
60714;SDS011;46564;53.096;8.246;2023-03-22T22:32:17;5.55;;;2.88;;
60714;SDS011;46564;53.096;8.246;2023-03-22T22:37:18;3.83;;;2.38;;
60714;SDS011;46564;53.096;8.246;2023-03-22T22:42:19;4.10;;;2.30;;
60714;SDS011;46564;53.096;8.246;2023-03-22T22:47:19;4.70;;;2.22;;
60714;SDS011;46564;53.096;8.246;2023-03-22T22:52:20;3.65;;;2.08;;
60714;SDS011;46564;53.096;8.246;2023-03-22T22:57:20;4.38;;;2.00;;
60714;SDS011;46564;53.096;8.246;2023-03-22T23:02:21;3.08;;;1.83;;
60714;SDS011;46564;53.096;8.246;2023-03-22T23:07:21;3.90;;;2.03;;
60714;SDS011;46564;53.096;8.246;2023-03-22T23:12:22;1.67;;;1.30;;
60714;SDS011;46564;53.096;8.246;2023-03-22T23:17:23;4.82;;;2.38;;
60714;SDS011;46564;53.096;8.246;2023-03-22T23:22:24;4.90;;;2.25;;
60714;SDS011;46564;53.096;8.246;2023-03-22T23:27:30;5.85;;;2.65;;
60714;SDS011;46564;53.096;8.246;2023-03-22T23:32:32;3.78;;;1.80;;
60714;SDS011;46564;53.096;8.246;2023-03-22T23:37:33;6.95;;;2.70;;
60714;SDS011;46564;53.096;8.246;2023-03-22T23:42:37;3.55;;;1.80;;
60714;SDS011;46564;53.096;8.246;2023-03-22T23:47:38;3.50;;;1.85;;
60714;SDS011;46564;53.096;8.246;2023-03-22T23:52:39;6.90;;;2.88;;
60714;SDS011;46564;53.096;8.246;2023-03-22T23:57:40;4.00;;;2.30;;
